sensor_id;sensor_type;location;lat;lon;timestamp;temperature;humidity
34989;DHT22;21192;40.182;44.516;2024-02-21T00:00:23;9.50;69.30
34989;DHT22;21192;40.182;44.516;2024-02-21T00:02:48;9.50;69.30
34989;DHT22;21192;40.182;44.516;2024-02-21T00:05:14;9.50;69.40
34989;DHT22;21192;40.182;44.516;2024-02-21T00:07:40;9.60;69.20
34989;DHT22;21192;40.182;44.516;2024-02-21T00:10:07;9.70;69.10
34989;DHT22;21192;40.182;44.516;2024-02-21T00:12:33;9.60;69.20
34989;DHT22;21192;40.182;44.516;2024-02-21T00:14:59;9.60;69.30
34989;DHT22;21192;40.182;44.516;2024-02-21T00:17:24;9.70;69.30
34989;DHT22;21192;40.182;44.516;2024-02-21T00:19:51;9.70;69.10
34989;DHT22;21192;40.182;44.516;2024-02-21T00:22:17;9.70;69.20
34989;DHT22;21192;40.182;44.516;2024-02-21T00:24:43;9.60;69.30
34989;DHT22;21192;40.182;44.516;2024-02-21T00:27:09;9.60;69.60
34989;DHT22;21192;40.182;44.516;2024-02-21T00:29:35;9.60;69.60
34989;DHT22;21192;40.182;44.516;2024-02-21T00:32:01;9.60;69.70
34989;DHT22;21192;40.182;44.516;2024-02-21T00:34:26;9.60;69.50
34989;DHT22;21192;40.182;44.516;2024-02-21T00:36:52;9.70;69.50
34989;DHT22;21192;40.182;44.516;2024-02-21T00:39:18;9.70;69.30
34989;DHT22;21192;40.182;44.516;2024-02-21T00:41:44;9.80;69.10
34989;DHT22;21192;40.182;44.516;2024-02-21T00:44:10;9.80;68.70
34989;DHT22;21192;40.182;44.516;2024-02-21T00:46:36;9.80;68.20
34989;DHT22;21192;40.182;44.516;2024-02-21T00:49:04;9.80;68.00
34989;DHT22;21192;40.182;44.516;2024-02-21T00:51:30;9.80;67.80
34989;DHT22;21192;40.182;44.516;2024-02-21T00:53:56;9.80;67.70
34989;DHT22;21192;40.182;44.516;2024-02-21T00:56:22;9.80;67.80
34989;DHT22;21192;40.182;44.516;2024-02-21T00:58:48;9.90;67.80
34989;DHT22;21192;40.182;44.516;2024-02-21T01:01:24;9.90;67.80
34989;DHT22;21192;40.182;44.516;2024-02-21T01:03:50;9.90;67.90
34989;DHT22;21192;40.182;44.516;2024-02-21T01:06:19;9.80;68.00
34989;DHT22;21192;40.182;44.516;2024-02-21T01:08:46;9.80;68.00
34989;DHT22;21192;40.182;44.516;2024-02-21T01:11:13;9.90;67.90
34989;DHT22;21192;40.182;44.516;2024-02-21T01:13:39;9.90;67.70
34989;DHT22;21192;40.182;44.516;2024-02-21T01:16:05;10.00;67.60
34989;DHT22;21192;40.182;44.516;2024-02-21T01:18:33;9.90;67.50
34989;DHT22;21192;40.182;44.516;2024-02-21T01:20:59;10.00;67.50
34989;DHT22;21192;40.182;44.516;2024-02-21T01:23:25;9.90;67.60
34989;DHT22;21192;40.182;44.516;2024-02-21T01:25:51;9.80;67.80
34989;DHT22;21192;40.182;44.516;2024-02-21T01:28:18;9.70;68.00
34989;DHT22;21192;40.182;44.516;2024-02-21T01:30:44;9.70;68.10
34989;DHT22;21192;40.182;44.516;2024-02-21T01:33:09;9.70;68.10
34989;DHT22;21192;40.182;44.516;2024-02-21T01:35:36;9.80;68.00
34989;DHT22;21192;40.182;44.516;2024-02-21T01:38:02;9.80;67.70
34989;DHT22;21192;40.182;44.516;2024-02-21T01:40:28;9.80;67.60
34989;DHT22;21192;40.182;44.516;2024-02-21T01:42:55;9.80;67.50
34989;DHT22;21192;40.182;44.516;2024-02-21T01:45:21;9.90;67.40
34989;DHT22;21192;40.182;44.516;2024-02-21T01:47:48;9.90;67.10
34989;DHT22;21192;40.182;44.516;2024-02-21T01:50:15;9.90;67.10
34989;DHT22;21192;40.182;44.516;2024-02-21T01:52:43;9.90;67.30
34989;DHT22;21192;40.182;44.516;2024-02-21T01:55:30;9.90;67.30
34989;DHT22;21192;40.182;44.516;2024-02-21T01:57:56;10.00;67.20
34989;DHT22;21192;40.182;44.516;2024-02-21T02:00:24;9.90;67.50
34989;DHT22;21192;40.182;44.516;2024-02-21T02:02:49;9.70;68.40
34989;DHT22;21192;40.182;44.516;2024-02-21T02:05:16;9.60;69.30
34989;DHT22;21192;40.182;44.516;2024-02-21T02:07:44;9.70;69.90
34989;DHT22;21192;40.182;44.516;2024-02-21T02:16:53;9.90;69.80
34989;DHT22;21192;40.182;44.516;2024-02-21T02:58:23;9.30;70.80
34989;DHT22;21192;40.182;44.516;2024-02-21T03:00:49;9.50;71.10
34989;DHT22;21192;40.182;44.516;2024-02-21T03:03:15;9.50;70.90
34989;DHT22;21192;40.182;44.516;2024-02-21T03:05:42;9.30;70.50
34989;DHT22;21192;40.182;44.516;2024-02-21T03:08:08;9.30;70.70
34989;DHT22;21192;40.182;44.516;2024-02-21T03:10:34;9.20;70.70
34989;DHT22;21192;40.182;44.516;2024-02-21T03:13:00;9.20;70.80
34989;DHT22;21192;40.182;44.516;2024-02-21T03:15:26;9.30;70.70
34989;DHT22;21192;40.182;44.516;2024-02-21T03:17:52;9.40;70.40
34989;DHT22;21192;40.182;44.516;2024-02-21T03:20:18;9.60;70.00
34989;DHT22;21192;40.182;44.516;2024-02-21T03:22:45;9.70;69.70
34989;DHT22;21192;40.182;44.516;2024-02-21T03:25:11;9.80;69.30
34989;DHT22;21192;40.182;44.516;2024-02-21T03:27:38;9.80;69.10
34989;DHT22;21192;40.182;44.516;2024-02-21T03:30:05;9.90;68.80
34989;DHT22;21192;40.182;44.516;2024-02-21T03:32:31;9.80;69.00
34989;DHT22;21192;40.182;44.516;2024-02-21T03:34:57;9.80;69.20
34989;DHT22;21192;40.182;44.516;2024-02-21T03:37:23;9.80;69.50
34989;DHT22;21192;40.182;44.516;2024-02-21T03:39:48;9.80;69.60
34989;DHT22;21192;40.182;44.516;2024-02-21T03:42:14;9.90;69.60
34989;DHT22;21192;40.182;44.516;2024-02-21T03:44:40;10.00;69.40
34989;DHT22;21192;40.182;44.516;2024-02-21T03:47:06;10.10;70.20
34989;DHT22;21192;40.182;44.516;2024-02-21T03:49:32;10.10;69.80
34989;DHT22;21192;40.182;44.516;2024-02-21T03:51:58;10.10;69.50
34989;DHT22;21192;40.182;44.516;2024-02-21T03:54:24;10.20;69.30
34989;DHT22;21192;40.182;44.516;2024-02-21T03:56:50;10.20;68.90
34989;DHT22;21192;40.182;44.516;2024-02-21T03:59:15;10.10;68.60
34989;DHT22;21192;40.182;44.516;2024-02-21T04:01:41;10.00;68.50
34989;DHT22;21192;40.182;44.516;2024-02-21T04:04:07;9.90;68.80
34989;DHT22;21192;40.182;44.516;2024-02-21T04:06:33;9.80;69.10
34989;DHT22;21192;40.182;44.516;2024-02-21T04:08:59;9.60;69.30
34989;DHT22;21192;40.182;44.516;2024-02-21T04:11:25;9.60;69.60
34989;DHT22;21192;40.182;44.516;2024-02-21T04:13:50;9.50;69.60
34989;DHT22;21192;40.182;44.516;2024-02-21T04:16:17;9.60;69.80
34989;DHT22;21192;40.182;44.516;2024-02-21T04:18:43;9.60;69.80
34989;DHT22;21192;40.182;44.516;2024-02-21T04:21:10;9.50;69.90
34989;DHT22;21192;40.182;44.516;2024-02-21T04:23:36;9.50;69.90
34989;DHT22;21192;40.182;44.516;2024-02-21T04:26:02;9.50;69.80
34989;DHT22;21192;40.182;44.516;2024-02-21T04:28:27;9.60;69.70
34989;DHT22;21192;40.182;44.516;2024-02-21T04:30:53;9.60;69.50
34989;DHT22;21192;40.182;44.516;2024-02-21T04:33:19;9.60;69.60
34989;DHT22;21192;40.182;44.516;2024-02-21T04:35:45;9.70;69.60
34989;DHT22;21192;40.182;44.516;2024-02-21T04:38:11;9.70;69.50
34989;DHT22;21192;40.182;44.516;2024-02-21T04:40:37;9.80;69.10
34989;DHT22;21192;40.182;44.516;2024-02-21T04:43:03;10.00;68.70
34989;DHT22;21192;40.182;44.516;2024-02-21T04:45:29;10.10;68.40
34989;DHT22;21192;40.182;44.516;2024-02-21T04:47:55;10.10;68.20
34989;DHT22;21192;40.182;44.516;2024-02-21T04:50:20;10.10;68.20
34989;DHT22;21192;40.182;44.516;2024-02-21T04:52:46;10.20;67.90
34989;DHT22;21192;40.182;44.516;2024-02-21T04:55:12;10.20;67.50
34989;DHT22;21192;40.182;44.516;2024-02-21T04:57:38;10.20;67.20
34989;DHT22;21192;40.182;44.516;2024-02-21T05:00:05;10.30;67.60
34989;DHT22;21192;40.182;44.516;2024-02-21T05:02:31;10.30;66.80
34989;DHT22;21192;40.182;44.516;2024-02-21T05:04:57;10.40;66.80
34989;DHT22;21192;40.182;44.516;2024-02-21T05:07:23;10.30;67.00
34989;DHT22;21192;40.182;44.516;2024-02-21T05:09:49;10.40;67.00
34989;DHT22;21192;40.182;44.516;2024-02-21T05:12:15;10.50;67.00
34989;DHT22;21192;40.182;44.516;2024-02-21T05:14:40;10.60;66.80
34989;DHT22;21192;40.182;44.516;2024-02-21T05:17:06;10.70;66.70
34989;DHT22;21192;40.182;44.516;2024-02-21T05:19:32;10.80;66.70
34989;DHT22;21192;40.182;44.516;2024-02-21T05:21:59;10.80;66.60
34989;DHT22;21192;40.182;44.516;2024-02-21T05:24:24;10.70;68.10
34989;DHT22;21192;40.182;44.516;2024-02-21T05:26:51;10.70;70.80
34989;DHT22;21192;40.182;44.516;2024-02-21T05:29:17;10.40;74.60
34989;DHT22;21192;40.182;44.516;2024-02-21T05:32:03;10.20;72.90
34989;DHT22;21192;40.182;44.516;2024-02-21T05:34:29;10.40;71.90
34989;DHT22;21192;40.182;44.516;2024-02-21T05:36:55;10.60;71.30
34989;DHT22;21192;40.182;44.516;2024-02-21T05:39:23;10.70;70.90
34989;DHT22;21192;40.182;44.516;2024-02-21T05:41:49;11.00;71.90
34989;DHT22;21192;40.182;44.516;2024-02-21T05:44:16;11.10;72.00
34989;DHT22;21192;40.182;44.516;2024-02-21T05:46:42;11.20;70.40
34989;DHT22;21192;40.182;44.516;2024-02-21T05:49:08;11.30;69.40
34989;DHT22;21192;40.182;44.516;2024-02-21T05:51:34;11.50;67.80
34989;DHT22;21192;40.182;44.516;2024-02-21T05:54:01;11.60;66.60
34989;DHT22;21192;40.182;44.516;2024-02-21T05:56:27;11.90;65.70
34989;DHT22;21192;40.182;44.516;2024-02-21T05:58:53;12.30;64.30
34989;DHT22;21192;40.182;44.516;2024-02-21T06:01:19;12.40;63.10
34989;DHT22;21192;40.182;44.516;2024-02-21T06:03:47;12.50;62.40
34989;DHT22;21192;40.182;44.516;2024-02-21T06:06:13;12.60;61.80
34989;DHT22;21192;40.182;44.516;2024-02-21T06:08:40;12.60;61.30
34989;DHT22;21192;40.182;44.516;2024-02-21T06:11:06;12.70;61.00
34989;DHT22;21192;40.182;44.516;2024-02-21T06:13:32;12.90;60.30
34989;DHT22;21192;40.182;44.516;2024-02-21T06:15:58;13.20;59.50
34989;DHT22;21192;40.182;44.516;2024-02-21T06:18:24;13.50;59.20
34989;DHT22;21192;40.182;44.516;2024-02-21T06:20:50;15.10;58.20
34989;DHT22;21192;40.182;44.516;2024-02-21T06:23:16;18.10;55.60
34989;DHT22;21192;40.182;44.516;2024-02-21T06:25:42;19.70;51.90
34989;DHT22;21192;40.182;44.516;2024-02-21T06:28:09;19.10;50.30
34989;DHT22;21192;40.182;44.516;2024-02-21T06:30:35;18.50;50.30
34989;DHT22;21192;40.182;44.516;2024-02-21T06:33:01;18.00;50.30
34989;DHT22;21192;40.182;44.516;2024-02-21T06:35:28;18.00;50.50
34989;DHT22;21192;40.182;44.516;2024-02-21T06:37:54;18.20;50.40
34989;DHT22;21192;40.182;44.516;2024-02-21T06:40:22;18.50;50.10
34989;DHT22;21192;40.182;44.516;2024-02-21T06:42:49;18.40;49.80
34989;DHT22;21192;40.182;44.516;2024-02-21T06:45:15;18.40;51.00
34989;DHT22;21192;40.182;44.516;2024-02-21T06:47:41;18.40;53.00
34989;DHT22;21192;40.182;44.516;2024-02-21T06:50:08;18.10;51.60
34989;DHT22;21192;40.182;44.516;2024-02-21T06:52:37;17.80;50.10
34989;DHT22;21192;40.182;44.516;2024-02-21T06:55:03;17.60;50.00
34989;DHT22;21192;40.182;44.516;2024-02-21T06:57:29;17.40;50.30
34989;DHT22;21192;40.182;44.516;2024-02-21T06:59:56;17.50;50.40
34989;DHT22;21192;40.182;44.516;2024-02-21T07:02:21;17.20;50.00
34989;DHT22;21192;40.182;44.516;2024-02-21T07:04:47;16.70;50.40
34989;DHT22;21192;40.182;44.516;2024-02-21T07:07:13;15.90;51.50
34989;DHT22;21192;40.182;44.516;2024-02-21T07:09:39;15.40;52.80
34989;DHT22;21192;40.182;44.516;2024-02-21T07:12:05;15.40;53.50
34989;DHT22;21192;40.182;44.516;2024-02-21T07:14:36;15.30;53.90
34989;DHT22;21192;40.182;44.516;2024-02-21T07:17:02;15.10;54.80
34989;DHT22;21192;40.182;44.516;2024-02-21T07:19:28;14.80;56.30
34989;DHT22;21192;40.182;44.516;2024-02-21T07:21:53;14.70;57.80
34989;DHT22;21192;40.182;44.516;2024-02-21T07:24:19;14.80;59.40
34989;DHT22;21192;40.182;44.516;2024-02-21T07:26:45;15.00;61.10
34989;DHT22;21192;40.182;44.516;2024-02-21T07:29:11;14.70;59.60
34989;DHT22;21192;40.182;44.516;2024-02-21T07:31:44;14.50;59.20
34989;DHT22;21192;40.182;44.516;2024-02-21T07:34:10;14.50;59.10
34989;DHT22;21192;40.182;44.516;2024-02-21T07:36:36;14.30;60.50
34989;DHT22;21192;40.182;44.516;2024-02-21T07:39:05;14.40;59.40
34989;DHT22;21192;40.182;44.516;2024-02-21T07:41:31;14.50;58.30
34989;DHT22;21192;40.182;44.516;2024-02-21T07:43:59;14.60;57.20
34989;DHT22;21192;40.182;44.516;2024-02-21T07:46:25;14.20;56.60
34989;DHT22;21192;40.182;44.516;2024-02-21T07:48:51;14.20;56.60
34989;DHT22;21192;40.182;44.516;2024-02-21T07:51:17;14.20;56.50
34989;DHT22;21192;40.182;44.516;2024-02-21T07:53:44;14.20;56.50
34989;DHT22;21192;40.182;44.516;2024-02-21T07:56:15;14.10;56.10
34989;DHT22;21192;40.182;44.516;2024-02-21T07:58:41;14.30;56.20
34989;DHT22;21192;40.182;44.516;2024-02-21T08:01:08;14.30;56.10
34989;DHT22;21192;40.182;44.516;2024-02-21T08:03:34;14.30;56.10
34989;DHT22;21192;40.182;44.516;2024-02-21T08:06:00;14.30;56.10
34989;DHT22;21192;40.182;44.516;2024-02-21T08:08:26;14.40;56.20
34989;DHT22;21192;40.182;44.516;2024-02-21T08:10:52;14.40;56.30
34989;DHT22;21192;40.182;44.516;2024-02-21T08:13:18;14.40;56.50
34989;DHT22;21192;40.182;44.516;2024-02-21T08:15:44;14.40;57.00
34989;DHT22;21192;40.182;44.516;2024-02-21T08:18:10;14.50;57.10
34989;DHT22;21192;40.182;44.516;2024-02-21T08:20:35;14.80;57.00
34989;DHT22;21192;40.182;44.516;2024-02-21T08:23:01;14.80;56.70
34989;DHT22;21192;40.182;44.516;2024-02-21T08:25:27;14.60;57.00
34989;DHT22;21192;40.182;44.516;2024-02-21T08:27:58;14.60;57.40
34989;DHT22;21192;40.182;44.516;2024-02-21T08:30:24;14.30;57.70
34989;DHT22;21192;40.182;44.516;2024-02-21T08:32:50;14.20;58.30
34989;DHT22;21192;40.182;44.516;2024-02-21T08:35:16;14.00;58.60
34989;DHT22;21192;40.182;44.516;2024-02-21T08:37:46;14.10;59.00
34989;DHT22;21192;40.182;44.516;2024-02-21T08:40:14;14.20;58.90
34989;DHT22;21192;40.182;44.516;2024-02-21T08:42:43;14.40;58.90
34989;DHT22;21192;40.182;44.516;2024-02-21T08:45:09;14.60;58.60
34989;DHT22;21192;40.182;44.516;2024-02-21T08:47:35;14.50;58.40
34989;DHT22;21192;40.182;44.516;2024-02-21T08:50:02;14.20;58.60
34989;DHT22;21192;40.182;44.516;2024-02-21T08:52:28;13.80;59.20
34989;DHT22;21192;40.182;44.516;2024-02-21T08:54:54;13.70;59.90
34989;DHT22;21192;40.182;44.516;2024-02-21T08:57:20;13.60;60.10
34989;DHT22;21192;40.182;44.516;2024-02-21T08:59:46;13.50;60.50
34989;DHT22;21192;40.182;44.516;2024-02-21T09:02:13;13.60;60.60
34989;DHT22;21192;40.182;44.516;2024-02-21T09:04:39;13.60;60.40
34989;DHT22;21192;40.182;44.516;2024-02-21T09:07:05;13.70;60.60
34989;DHT22;21192;40.182;44.516;2024-02-21T09:09:31;14.00;60.40
34989;DHT22;21192;40.182;44.516;2024-02-21T09:11:58;14.00;60.00
34989;DHT22;21192;40.182;44.516;2024-02-21T09:14:32;14.10;59.90
34989;DHT22;21192;40.182;44.516;2024-02-21T09:16:58;14.30;59.70
34989;DHT22;21192;40.182;44.516;2024-02-21T09:19:24;14.30;59.60
34989;DHT22;21192;40.182;44.516;2024-02-21T09:21:49;14.30;59.60
34989;DHT22;21192;40.182;44.516;2024-02-21T09:24:15;14.30;59.60
34989;DHT22;21192;40.182;44.516;2024-02-21T09:26:41;13.90;59.70
34989;DHT22;21192;40.182;44.516;2024-02-21T09:29:07;13.60;60.30
34989;DHT22;21192;40.182;44.516;2024-02-21T09:31:34;13.50;60.80
34989;DHT22;21192;40.182;44.516;2024-02-21T09:34:00;13.60;61.20
34989;DHT22;21192;40.182;44.516;2024-02-21T09:36:25;13.70;60.80
34989;DHT22;21192;40.182;44.516;2024-02-21T09:38:51;13.70;61.10
34989;DHT22;21192;40.182;44.516;2024-02-21T09:41:21;13.90;60.90
34989;DHT22;21192;40.182;44.516;2024-02-21T09:43:50;13.80;60.60
34989;DHT22;21192;40.182;44.516;2024-02-21T09:46:19;13.70;60.70
34989;DHT22;21192;40.182;44.516;2024-02-21T09:49:23;13.50;61.00
34989;DHT22;21192;40.182;44.516;2024-02-21T09:51:54;13.30;61.10
34989;DHT22;21192;40.182;44.516;2024-02-21T09:54:21;13.00;61.60
34989;DHT22;21192;40.182;44.516;2024-02-21T09:56:47;13.10;62.00
34989;DHT22;21192;40.182;44.516;2024-02-21T09:59:17;13.20;61.90
34989;DHT22;21192;40.182;44.516;2024-02-21T10:01:44;13.20;61.80
34989;DHT22;21192;40.182;44.516;2024-02-21T10:04:10;13.10;61.50
34989;DHT22;21192;40.182;44.516;2024-02-21T10:06:36;13.10;61.50
34989;DHT22;21192;40.182;44.516;2024-02-21T10:09:03;13.00;61.40
34989;DHT22;21192;40.182;44.516;2024-02-21T10:11:29;13.00;61.30
34989;DHT22;21192;40.182;44.516;2024-02-21T10:14:06;12.70;62.20
34989;DHT22;21192;40.182;44.516;2024-02-21T10:16:33;12.50;62.40
34989;DHT22;21192;40.182;44.516;2024-02-21T10:18:59;12.50;62.90
34989;DHT22;21192;40.182;44.516;2024-02-21T10:21:25;12.70;63.00
34989;DHT22;21192;40.182;44.516;2024-02-21T10:23:51;12.90;62.70
34989;DHT22;21192;40.182;44.516;2024-02-21T10:26:20;13.10;62.40
34989;DHT22;21192;40.182;44.516;2024-02-21T10:28:49;13.20;61.90
34989;DHT22;21192;40.182;44.516;2024-02-21T10:31:27;13.30;62.20
34989;DHT22;21192;40.182;44.516;2024-02-21T10:34:02;13.10;62.50
34989;DHT22;21192;40.182;44.516;2024-02-21T10:36:29;13.20;62.70
34989;DHT22;21192;40.182;44.516;2024-02-21T10:38:55;13.20;62.40
34989;DHT22;21192;40.182;44.516;2024-02-21T10:41:22;13.30;62.30
34989;DHT22;21192;40.182;44.516;2024-02-21T10:43:53;13.40;62.30
34989;DHT22;21192;40.182;44.516;2024-02-21T10:46:21;13.50;61.90
34989;DHT22;21192;40.182;44.516;2024-02-21T10:48:58;13.60;61.70
34989;DHT22;21192;40.182;44.516;2024-02-21T10:51:31;13.70;61.30
34989;DHT22;21192;40.182;44.516;2024-02-21T10:56:39;13.70;60.60
34989;DHT22;21192;40.182;44.516;2024-02-21T10:59:07;13.60;60.30
34989;DHT22;21192;40.182;44.516;2024-02-21T11:01:34;13.60;60.20
34989;DHT22;21192;40.182;44.516;2024-02-21T11:04:07;13.60;59.90
34989;DHT22;21192;40.182;44.516;2024-02-21T11:06:36;13.60;59.20
34989;DHT22;21192;40.182;44.516;2024-02-21T11:09:09;13.60;58.80
34989;DHT22;21192;40.182;44.516;2024-02-21T11:11:38;13.40;58.90
34989;DHT22;21192;40.182;44.516;2024-02-21T11:14:08;13.30;59.40
34989;DHT22;21192;40.182;44.516;2024-02-21T11:16:39;13.30;59.30
34989;DHT22;21192;40.182;44.516;2024-02-21T11:19:09;13.20;59.10
34989;DHT22;21192;40.182;44.516;2024-02-21T11:21:37;13.40;59.20
34989;DHT22;21192;40.182;44.516;2024-02-21T11:24:04;13.40;58.90
34989;DHT22;21192;40.182;44.516;2024-02-21T11:26:30;13.30;58.80
34989;DHT22;21192;40.182;44.516;2024-02-21T11:28:58;13.10;59.60
34989;DHT22;21192;40.182;44.516;2024-02-21T11:31:26;13.10;59.50
34989;DHT22;21192;40.182;44.516;2024-02-21T11:33:54;13.10;59.20
34989;DHT22;21192;40.182;44.516;2024-02-21T11:36:24;12.90;58.80
34989;DHT22;21192;40.182;44.516;2024-02-21T11:38:51;13.00;59.20
34989;DHT22;21192;40.182;44.516;2024-02-21T11:41:17;12.90;59.00
34989;DHT22;21192;40.182;44.516;2024-02-21T11:43:43;12.90;59.00
34989;DHT22;21192;40.182;44.516;2024-02-21T11:46:09;13.10;59.10
34989;DHT22;21192;40.182;44.516;2024-02-21T11:48:35;13.20;58.60
34989;DHT22;21192;40.182;44.516;2024-02-21T11:51:01;13.30;57.90
34989;DHT22;21192;40.182;44.516;2024-02-21T11:53:29;13.20;57.30
34989;DHT22;21192;40.182;44.516;2024-02-21T11:55:56;13.30;57.20
34989;DHT22;21192;40.182;44.516;2024-02-21T11:58:22;13.50;56.60
34989;DHT22;21192;40.182;44.516;2024-02-21T12:00:48;13.60;56.40
34989;DHT22;21192;40.182;44.516;2024-02-21T12:03:15;13.70;56.20
34989;DHT22;21192;40.182;44.516;2024-02-21T12:05:44;13.70;55.40
34989;DHT22;21192;40.182;44.516;2024-02-21T12:08:12;13.60;55.00
34989;DHT22;21192;40.182;44.516;2024-02-21T12:10:38;13.50;55.10
34989;DHT22;21192;40.182;44.516;2024-02-21T12:13:08;13.40;55.30
34989;DHT22;21192;40.182;44.516;2024-02-21T12:15:34;13.40;55.30
34989;DHT22;21192;40.182;44.516;2024-02-21T12:18:00;13.50;55.70
34989;DHT22;21192;40.182;44.516;2024-02-21T12:20:26;13.50;55.80
34989;DHT22;21192;40.182;44.516;2024-02-21T12:22:52;13.40;55.60
34989;DHT22;21192;40.182;44.516;2024-02-21T12:25:22;13.40;54.90
34989;DHT22;21192;40.182;44.516;2024-02-21T12:27:49;13.50;54.50
34989;DHT22;21192;40.182;44.516;2024-02-21T12:30:15;13.40;53.40
34989;DHT22;21192;40.182;44.516;2024-02-21T12:32:41;13.20;52.60
34989;DHT22;21192;40.182;44.516;2024-02-21T12:35:08;13.20;52.50
34989;DHT22;21192;40.182;44.516;2024-02-21T12:37:33;13.40;52.70
34989;DHT22;21192;40.182;44.516;2024-02-21T12:39:59;13.50;52.80
34989;DHT22;21192;40.182;44.516;2024-02-21T12:42:26;13.60;52.90
34989;DHT22;21192;40.182;44.516;2024-02-21T12:44:52;13.70;52.80
34989;DHT22;21192;40.182;44.516;2024-02-21T12:47:18;13.80;52.10
34989;DHT22;21192;40.182;44.516;2024-02-21T12:49:49;13.80;51.80
34989;DHT22;21192;40.182;44.516;2024-02-21T12:52:15;14.00;51.80
34989;DHT22;21192;40.182;44.516;2024-02-21T12:54:41;14.00;52.10
34989;DHT22;21192;40.182;44.516;2024-02-21T12:57:08;14.00;52.70
34989;DHT22;21192;40.182;44.516;2024-02-21T12:59:34;14.00;53.70
34989;DHT22;21192;40.182;44.516;2024-02-21T13:02:00;13.90;53.90
34989;DHT22;21192;40.182;44.516;2024-02-21T13:04:26;13.80;54.20
34989;DHT22;21192;40.182;44.516;2024-02-21T13:06:51;13.50;55.20
34989;DHT22;21192;40.182;44.516;2024-02-21T13:09:17;13.40;55.20
34989;DHT22;21192;40.182;44.516;2024-02-21T13:11:44;13.40;56.20
34989;DHT22;21192;40.182;44.516;2024-02-21T13:14:12;13.10;57.00
34989;DHT22;21192;40.182;44.516;2024-02-21T13:16:38;13.10;57.00
34989;DHT22;21192;40.182;44.516;2024-02-21T13:19:07;12.90;57.30
34989;DHT22;21192;40.182;44.516;2024-02-21T13:21:36;12.90;57.50
34989;DHT22;21192;40.182;44.516;2024-02-21T13:24:02;12.90;57.50
34989;DHT22;21192;40.182;44.516;2024-02-21T13:26:28;13.10;57.50
34989;DHT22;21192;40.182;44.516;2024-02-21T13:28:54;13.10;57.00
34989;DHT22;21192;40.182;44.516;2024-02-21T13:31:21;13.20;56.90
34989;DHT22;21192;40.182;44.516;2024-02-21T13:33:47;13.30;56.70
34989;DHT22;21192;40.182;44.516;2024-02-21T13:36:12;13.40;56.40
34989;DHT22;21192;40.182;44.516;2024-02-21T13:38:39;13.20;56.30
34989;DHT22;21192;40.182;44.516;2024-02-21T13:41:06;13.20;56.50
34989;DHT22;21192;40.182;44.516;2024-02-21T13:43:32;13.20;56.50
34989;DHT22;21192;40.182;44.516;2024-02-21T13:46:00;13.20;56.30
34989;DHT22;21192;40.182;44.516;2024-02-21T13:48:26;13.20;56.10
34989;DHT22;21192;40.182;44.516;2024-02-21T13:50:54;13.30;55.90
34989;DHT22;21192;40.182;44.516;2024-02-21T13:53:20;13.40;55.60
34989;DHT22;21192;40.182;44.516;2024-02-21T13:55:47;13.50;55.20
34989;DHT22;21192;40.182;44.516;2024-02-21T13:58:13;13.50;54.50
34989;DHT22;21192;40.182;44.516;2024-02-21T14:00:39;13.60;54.20
34989;DHT22;21192;40.182;44.516;2024-02-21T14:03:05;13.40;54.10
34989;DHT22;21192;40.182;44.516;2024-02-21T14:05:31;13.30;54.40
34989;DHT22;21192;40.182;44.516;2024-02-21T14:07:57;13.20;54.60
34989;DHT22;21192;40.182;44.516;2024-02-21T14:10:23;13.20;54.70
34989;DHT22;21192;40.182;44.516;2024-02-21T14:12:49;13.20;54.80
34989;DHT22;21192;40.182;44.516;2024-02-21T14:15:15;12.90;55.60
34989;DHT22;21192;40.182;44.516;2024-02-21T14:17:42;12.50;56.20
34989;DHT22;21192;40.182;44.516;2024-02-21T14:20:08;12.20;56.70
34989;DHT22;21192;40.182;44.516;2024-02-21T14:22:35;12.00;57.30
34989;DHT22;21192;40.182;44.516;2024-02-21T14:25:03;12.00;57.70
34989;DHT22;21192;40.182;44.516;2024-02-21T14:27:31;11.90;57.80
34989;DHT22;21192;40.182;44.516;2024-02-21T14:29:58;11.80;57.60
34989;DHT22;21192;40.182;44.516;2024-02-21T14:32:24;11.90;57.70
34989;DHT22;21192;40.182;44.516;2024-02-21T14:34:50;12.00;57.70
34989;DHT22;21192;40.182;44.516;2024-02-21T14:37:16;12.10;57.60
34989;DHT22;21192;40.182;44.516;2024-02-21T14:39:42;12.00;57.50
34989;DHT22;21192;40.182;44.516;2024-02-21T14:42:09;12.00;57.50
34989;DHT22;21192;40.182;44.516;2024-02-21T14:44:37;12.10;57.40
34989;DHT22;21192;40.182;44.516;2024-02-21T14:47:03;12.10;57.40
34989;DHT22;21192;40.182;44.516;2024-02-21T14:49:30;12.20;57.30
34989;DHT22;21192;40.182;44.516;2024-02-21T14:51:56;12.20;57.10
34989;DHT22;21192;40.182;44.516;2024-02-21T14:54:22;12.30;57.10
34989;DHT22;21192;40.182;44.516;2024-02-21T14:56:49;12.20;57.00
34989;DHT22;21192;40.182;44.516;2024-02-21T14:59:15;12.20;56.80
34989;DHT22;21192;40.182;44.516;2024-02-21T15:01:44;12.00;56.60
34989;DHT22;21192;40.182;44.516;2024-02-21T15:04:10;12.00;56.80
34989;DHT22;21192;40.182;44.516;2024-02-21T15:06:36;12.00;57.00
34989;DHT22;21192;40.182;44.516;2024-02-21T15:09:03;12.00;57.10
34989;DHT22;21192;40.182;44.516;2024-02-21T15:11:29;11.90;57.50
34989;DHT22;21192;40.182;44.516;2024-02-21T15:13:55;11.80;57.90
34989;DHT22;21192;40.182;44.516;2024-02-21T15:16:21;11.80;58.00
34989;DHT22;21192;40.182;44.516;2024-02-21T15:18:47;11.90;58.20
34989;DHT22;21192;40.182;44.516;2024-02-21T15:21:13;11.80;59.90
34989;DHT22;21192;40.182;44.516;2024-02-21T15:23:41;11.60;60.80
34989;DHT22;21192;40.182;44.516;2024-02-21T15:26:07;11.60;61.40
34989;DHT22;21192;40.182;44.516;2024-02-21T15:28:33;11.60;62.10
34989;DHT22;21192;40.182;44.516;2024-02-21T15:30:59;11.50;63.10
34989;DHT22;21192;40.182;44.516;2024-02-21T15:33:25;11.50;63.60
34989;DHT22;21192;40.182;44.516;2024-02-21T15:35:52;11.40;64.40
34989;DHT22;21192;40.182;44.516;2024-02-21T15:38:19;11.50;64.50
34989;DHT22;21192;40.182;44.516;2024-02-21T15:40:45;11.50;64.50
34989;DHT22;21192;40.182;44.516;2024-02-21T15:43:11;11.50;64.90
34989;DHT22;21192;40.182;44.516;2024-02-21T15:45:37;11.50;65.10
34989;DHT22;21192;40.182;44.516;2024-02-21T15:48:09;11.50;65.10
34989;DHT22;21192;40.182;44.516;2024-02-21T15:50:35;11.60;65.10
34989;DHT22;21192;40.182;44.516;2024-02-21T15:53:01;11.50;65.20
34989;DHT22;21192;40.182;44.516;2024-02-21T15:55:27;11.50;66.00
34989;DHT22;21192;40.182;44.516;2024-02-21T15:57:54;11.50;65.50
34989;DHT22;21192;40.182;44.516;2024-02-21T16:00:20;11.50;65.60
34989;DHT22;21192;40.182;44.516;2024-02-21T16:02:47;11.50;65.60
34989;DHT22;21192;40.182;44.516;2024-02-21T16:05:13;11.60;65.70